Time;durP1;ratioP1;P1;durP2;ratioP2;P2;SDS_P1;SDS_P2;PMS_P1;PMS_P2;Temp;Humidity;BMP_temperature;BMP_pressure;BME280_temperature;BME280_humidity;BME280_pressure;Samples;Min_cycle;Max_cycle;Signal;HPM_P1;HPM_P2
2023/10/08 00:03:29;;;;;;;18.30;4.10;;;;;;;16.56;55.89;98297.50;77801;1304;3052198;-69
2023/10/08 00:05:56;;;;;;;7.30;3.80;;;;;;;16.51;56.62;98291.48;79413;1298;3012680;-67
2023/10/08 00:08:23;;;;;;;10.00;3.80;;;;;;;16.46;56.93;98292.85;79634;1298;3013033;-63
2023/10/08 00:10:51;;;;;;;14.20;3.80;;;;;;;16.41;57.51;98285.64;78307;1298;3025920;-66
2023/10/08 00:13:17;;;;;;;9.40;3.50;;;;;;;16.34;57.99;98295.20;79474;1298;3013110;-70
2023/10/08 00:15:54;;;;;;;9.00;3.50;;;;;;;16.35;58.19;98290.98;79483;1298;3011734;-66
2023/10/08 00:18:22;;;;;;;13.00;3.80;;;;;;;16.33;58.76;98285.52;78409;1298;3053844;-67
2023/10/08 00:21:15;;;;;;;10.90;3.70;;;;;;;16.23;60.01;98284.46;79587;1295;3013416;-65
2023/10/08 00:23:49;;;;;;;14.90;4.40;;;;;;;16.21;60.73;98287.46;78165;1296;3058116;-64
2023/10/08 00:26:18;;;;;;;11.70;4.20;;;;;;;16.13;62.01;98287.30;79327;1295;3011719;-64
2023/10/08 00:28:51;;;;;;;11.10;4.40;;;;;;;16.13;61.73;98281.80;78113;1301;3055354;-65
2023/10/08 00:31:18;;;;;;;15.00;5.30;;;;;;;16.01;63.08;98288.25;79340;1301;3013544;-70
2023/10/08 00:33:45;;;;;;;12.30;4.80;;;;;;;15.98;63.71;98287.22;79406;1299;3011556;-68
2023/10/08 00:36:20;;;;;;;11.30;4.80;;;;;;;15.93;64.40;98288.70;78139;1300;3069266;-64
2023/10/08 00:38:55;;;;;;;17.00;6.10;;;;;;;15.78;65.84;98285.14;78891;1302;3011554;-70
2023/10/08 00:41:22;;;;;;;15.40;4.00;;;;;;;15.74;66.12;98289.91;79590;1301;3011663;-68
2023/10/08 00:43:50;;;;;;;15.90;4.80;;;;;;;15.71;66.78;98283.64;78211;1296;3058317;-63
2023/10/08 00:46:30;;;;;;;13.70;5.50;;;;;;;15.59;68.21;98279.77;79561;1295;3012798;-73
2023/10/08 00:49:11;;;;;;;12.20;5.10;;;;;;;15.48;69.79;98282.83;78248;1300;3050461;-70
2023/10/08 00:51:42;;;;;;;14.40;5.10;;;;;;;15.59;69.29;98278.54;78244;1301;3052969;-70
2023/10/08 00:54:09;;;;;;;15.00;5.20;;;;;;;15.95;69.95;98274.03;79551;1300;3013616;-69
2023/10/08 00:56:46;;;;;;;13.10;6.20;;;;;;;16.26;69.11;98278.88;78916;1299;3013148;-69
2023/10/08 00:59:15;;;;;;;14.40;7.10;;;;;;;16.28;69.08;98279.88;78144;1301;3051616;-65
2023/10/08 01:01:51;;;;;;;12.90;7.10;;;;;;;16.05;70.39;98276.75;79581;1301;3011530;-70
2023/10/08 01:04:23;;;;;;;12.30;5.50;;;;;;;15.96;71.07;98282.13;78358;1308;3054338;-68
2023/10/08 01:06:54;;;;;;;11.20;5.40;;;;;;;15.58;73.34;98278.96;79406;1298;3012029;-68
2023/10/08 01:09:30;;;;;;;11.00;4.70;;;;;;;15.48;74.14;98275.88;78308;1298;3052706;-69
2023/10/08 01:12:15;;;;;;;13.00;3.90;;;;;;;15.37;75.44;98278.27;78385;1308;3053883;-68
2023/10/08 01:14:43;;;;;;;13.80;3.90;;;;;;;15.85;75.25;98277.95;78424;1298;3069955;-69
2023/10/08 01:17:14;;;;;;;12.10;4.00;;;;;;;16.00;74.80;98275.66;79471;1298;3013375;-71
2023/10/08 01:19:45;;;;;;;13.40;4.30;;;;;;;16.02;74.72;98277.08;78562;1295;3049955;-73
2023/10/08 01:22:16;;;;;;;11.80;4.60;;;;;;;15.83;76.00;98270.50;79331;1296;3013070;-68
2023/10/08 01:24:48;;;;;;;8.80;4.50;;;;;;;15.65;76.87;98276.73;78114;1308;3049813;-68
2023/10/08 01:27:21;;;;;;;8.50;4.10;;;;;;;15.56;76.72;98276.84;79619;1295;3011940;-73
2023/10/08 01:29:50;;;;;;;11.70;4.10;;;;;;;15.37;78.44;98268.38;78505;1300;3051821;-68
2023/10/08 01:32:17;;;;;;;12.50;3.80;;;;;;;15.79;78.40;98269.16;79595;1301;3012858;-74
2023/10/08 01:34:47;;;;;;;10.20;4.50;;;;;;;16.42;75.80;98261.64;79511;1300;3013430;-66
2023/10/08 01:37:18;;;;;;;11.30;4.90;;;;;;;16.34;75.87;98258.90;78195;1302;3048484;-65
2023/10/08 01:39:45;;;;;;;13.40;6.10;;;;;;;16.26;75.27;98255.86;79493;1295;3012887;-70
2023/10/08 01:42:17;;;;;;;10.20;7.00;;;;;;;15.93;76.42;98255.66;78313;1302;3026478;-74
2023/10/08 01:44:53;;;;;;;12.30;6.50;;;;;;;15.80;76.26;98253.31;79680;1301;3011708;-69
2023/10/08 01:47:25;;;;;;;9.10;4.30;;;;;;;15.56;77.98;98249.34;78331;1301;3053486;-74
2023/10/08 01:50:00;;;;;;;10.30;4.50;;;;;;;16.09;77.36;98249.45;79412;1297;3012710;-73
2023/10/08 01:52:29;;;;;;;9.10;4.10;;;;;;;16.30;76.08;98251.40;78298;1300;3050944;-70
2023/10/08 01:54:56;;;;;;;10.20;4.50;;;;;;;16.17;76.33;98246.77;79485;1301;3013077;-69
2023/10/08 01:57:25;;;;;;;12.10;4.90;;;;;;;15.82;77.80;98242.10;79580;1295;3011597;-72
2023/10/08 01:59:54;;;;;;;13.90;5.20;;;;;;;15.55;79.00;98238.73;78121;1301;3049709;-70
2023/10/08 02:02:21;;;;;;;8.90;4.20;;;;;;;15.25;80.65;98233.78;79360;1301;3013099;-67
2023/10/08 02:04:48;;;;;;;6.40;3.30;;;;;;;15.11;81.13;98234.45;79610;1298;3013195;-71
2023/10/08 02:07:15;;;;;;;8.50;3.80;;;;;;;15.54;81.06;98233.02;78101;1301;3050779;-70
2023/10/08 02:09:42;;;;;;;13.00;4.80;;;;;;;15.84;79.90;98229.44;79409;1295;3012863;-66
2023/10/08 02:12:09;;;;;;;13.00;5.30;;;;;;;15.76;79.91;98232.66;79590;1295;3011887;-69
2023/10/08 02:14:40;;;;;;;8.30;5.20;;;;;;;15.50;81.00;98229.83;78146;1301;3026746;-68
2023/10/08 02:17:09;;;;;;;8.20;5.30;;;;;;;15.20;82.90;98224.86;79589;1301;3011554;-69
2023/10/08 02:19:37;;;;;;;13.60;5.70;;;;;;;14.97;84.22;98223.23;78180;1308;3053311;-67
2023/10/08 02:22:09;;;;;;;9.20;4.00;;;;;;;14.92;84.95;98219.33;79579;1301;3013595;-72
2023/10/08 02:24:37;;;;;;;10.50;4.00;;;;;;;15.51;83.02;98206.13;78084;1301;3057204;-67
2023/10/08 02:27:05;;;;;;;11.80;4.20;;;;;;;15.79;81.70;98206.30;79656;1295;3012932;-72
2023/10/08 02:29:31;;;;;;;9.40;5.10;;;;;;;15.70;81.64;98202.23;79551;1295;3011786;-67
2023/10/08 02:31:59;;;;;;;8.80;5.20;;;;;;;15.45;82.21;98204.24;78219;1300;3052943;-69
2023/10/08 02:34:26;;;;;;;11.60;5.60;;;;;;;15.21;83.82;98197.05;79524;1295;3013705;-70
2023/10/08 02:36:53;;;;;;;5.10;3.10;;;;;;;15.01;85.01;98201.21;79472;1295;3011953;-74
2023/10/08 02:39:21;;;;;;;7.40;3.90;;;;;;;15.47;84.32;98192.33;78348;1301;3026325;-70
2023/10/08 02:41:49;;;;;;;8.90;4.00;;;;;;;15.90;82.15;98192.10;79632;1295;3013643;-73
2023/10/08 02:44:16;;;;;;;11.30;4.40;;;;;;;16.01;80.58;98192.63;79584;1301;3013683;-67
2023/10/08 02:46:47;;;;;;;10.50;5.20;;;;;;;15.70;81.39;98183.52;78362;1300;3050956;-68
2023/10/08 02:49:23;;;;;;;9.90;5.60;;;;;;;15.51;81.62;98187.03;79863;1298;3011691;-68
2023/10/08 02:51:53;;;;;;;10.90;4.90;;;;;;;15.21;83.40;98183.65;78391;1296;3069932;-67
2023/10/08 02:54:31;;;;;;;7.60;3.80;;;;;;;15.13;83.63;98182.73;79675;1295;3011341;-71
2023/10/08 02:57:00;;;;;;;7.20;3.20;;;;;;;15.75;82.51;98185.73;78211;1301;3056595;-69
2023/10/08 02:59:49;;;;;;;9.90;4.10;;;;;;;15.95;81.51;98184.88;79610;1296;3013358;-65
2023/10/08 03:02:21;;;;;;;6.10;3.70;;;;;;;15.81;81.73;98183.65;78263;1300;3050127;-66
2023/10/08 03:04:51;;;;;;;7.20;3.80;;;;;;;15.58;82.00;98179.82;79443;1294;3012776;-70
2023/10/08 03:07:22;;;;;;;11.90;3.70;;;;;;;15.26;83.33;98178.06;78124;1300;3052439;-65
2023/10/08 03:10:06;;;;;;;5.30;3.30;;;;;;;15.01;85.58;98176.50;79473;1296;3011758;-72
2023/10/08 03:12:34;;;;;;;5.90;2.90;;;;;;;15.59;83.81;98175.13;78362;1298;3052260;-68
2023/10/08 03:17:51;;;;;;;7.20;3.60;;;;;;;15.53;82.60;98165.30;78078;1298;3053613;-72
2023/10/08 03:20:29;;;;;;;8.10;3.40;;;;;;;15.33;82.99;98166.21;79797;1301;3013062;-64
2023/10/08 03:22:57;;;;;;;6.10;3.30;;;;;;;15.10;84.57;98159.42;78160;1301;3052414;-66
2023/10/08 03:25:24;;;;;;;14.70;4.80;;;;;;;15.48;84.12;98159.25;79617;1298;3021088;-74
2023/10/08 03:27:52;;;;;;;8.90;3.80;;;;;;;15.69;82.75;98157.30;79507;1296;3013113;-69
2023/10/08 03:30:20;;;;;;;8.40;4.20;;;;;;;15.41;84.01;98155.38;78223;1298;3049044;-73
2023/10/08 03:32:55;;;;;;;8.80;4.00;;;;;;;15.31;84.02;98148.33;79366;1301;3013523;-64
2023/10/08 03:35:27;;;;;;;10.90;5.00;;;;;;;15.12;84.34;98145.24;78138;1299;3053025;-68
2023/10/08 03:38:17;;;;;;;11.60;4.70;;;;;;;14.95;85.21;98140.64;79691;1295;3013177;-71
2023/10/08 03:40:43;;;;;;;10.20;5.00;;;;;;;15.49;84.69;98137.79;78495;1295;3070426;-69
2023/10/08 03:46:05;;;;;;;14.40;5.70;;;;;;;15.69;82.88;98131.05;78277;1298;3050174;-64
2023/10/08 03:48:36;;;;;;;8.90;5.30;;;;;;;15.20;84.92;98125.59;79552;1295;3013693;-67
2023/10/08 03:51:11;;;;;;;9.80;5.60;;;;;;;15.08;84.65;98129.12;78324;1298;3049093;-69
2023/10/08 03:56:31;;;;;;;11.40;4.60;;;;;;;15.21;86.02;98115.95;78338;1298;3053624;-70
2023/10/08 03:59:03;;;;;;;7.60;4.70;;;;;;;15.21;86.14;98110.67;79821;1298;3013228;-76
2023/10/08 04:01:32;;;;;;;7.30;5.30;;;;;;;15.19;85.49;98110.65;78741;1298;3051678;-60
2023/10/08 04:04:00;;;;;;;8.00;5.30;;;;;;;15.08;85.21;98106.55;80270;1298;3013006;-64
2023/10/08 04:11:51;;;;;;;8.40;5.40;;;;;;;15.58;84.48;98101.45;78943;1296;3011491;-68
2023/10/08 04:14:19;;;;;;;;;;;;;;;15.37;84.70;98105.92;78331;1298;3052845;-68
2023/10/08 04:16:46;;;;;;;8.70;5.30;;;;;;;15.07;86.11;98102.23;79536;1295;3012993;-72
2023/10/08 04:19:13;;;;;;;6.10;3.60;;;;;;;14.80;87.97;98100.98;79567;1301;3011613;-69
2023/10/08 04:21:45;;;;;;;8.40;4.20;;;;;;;15.05;87.97;98102.08;78499;1294;3056685;-72
2023/10/08 04:24:14;;;;;;;5.90;3.70;;;;;;;15.35;86.23;98108.17;79775;1295;3013625;-73
2023/10/08 04:26:41;;;;;;;10.70;4.90;;;;;;;15.40;84.19;98116.48;79692;1295;3011949;-68
2023/10/08 04:29:08;;;;;;;7.00;4.40;;;;;;;14.98;85.22;98126.73;78538;1298;3052752;-69
2023/10/08 04:31:38;;;;;;;8.30;5.70;;;;;;;14.63;86.12;98124.38;79711;1296;3018420;-71
2023/10/08 04:34:16;;;;;;;8.70;3.70;;;;;;;14.28;88.64;98137.61;79171;1295;3011561;-67
2023/10/08 04:36:53;;;;;;;8.30;3.80;;;;;;;14.68;87.57;98141.27;78505;1295;3051901;-68
2023/10/08 04:39:22;;;;;;;8.70;4.90;;;;;;;14.79;85.08;98147.66;78477;1294;3057793;-66
2023/10/08 04:41:53;;;;;;;7.40;4.20;;;;;;;14.53;84.77;98148.62;79581;1295;3013096;-72
2023/10/08 04:44:21;;;;;;;8.20;3.40;;;;;;;14.03;86.45;98149.49;78260;1298;3050070;-63
2023/10/08 04:46:51;;;;;;;4.70;3.20;;;;;;;13.82;87.53;98144.08;79581;1298;3013474;-69
2023/10/08 04:49:27;;;;;;;3.60;1.60;;;;;;;13.72;87.86;98139.23;79219;1298;3011891;-69
2023/10/08 04:52:00;;;;;;;3.00;1.60;;;;;;;14.06;87.93;98151.29;79190;1295;3011602;-69
2023/10/08 04:54:30;;;;;;;4.10;2.10;;;;;;;14.24;86.22;98148.05;79536;1294;3013667;-70
2023/10/08 04:56:59;;;;;;;4.60;2.70;;;;;;;14.13;86.15;98153.67;78162;1294;3052968;-68
2023/10/08 04:59:34;;;;;;;5.50;3.90;;;;;;;13.94;86.16;98154.05;79580;1295;3011966;-66
2023/10/08 05:02:19;;;;;;;7.20;4.70;;;;;;;13.67;87.28;98149.59;78385;1295;3050026;-66
2023/10/08 05:07:21;;;;;;;9.20;3.40;;;;;;;13.87;87.82;98152.63;79430;1295;3011664;-65
2023/10/08 05:10:10;;;;;;;8.50;3.60;;;;;;;14.01;86.19;98155.13;78389;1298;3051195;-69
2023/10/08 05:12:45;;;;;;;9.00;4.00;;;;;;;14.04;85.82;98162.85;78184;1298;3054076;-73
2023/10/08 05:20:30;;;;;;;5.30;2.70;;;;;;;13.44;87.67;98174.36;78438;1298;3056940;-68
2023/10/08 05:23:20;;;;;;;4.80;2.90;;;;;;;13.73;86.78;98164.88;78559;1295;3049140;-64
2023/10/08 05:25:58;;;;;;;5.80;3.20;;;;;;;13.76;85.47;98170.52;78121;1295;3053814;-65
2023/10/08 05:28:26;;;;;;;6.80;2.80;;;;;;;13.54;86.64;98175.27;78077;1301;3050522;-72
2023/10/08 05:30:54;;;;;;;5.40;2.40;;;;;;;13.44;86.80;98178.58;79537;1298;3018682;-73
2023/10/08 05:33:25;;;;;;;7.10;2.00;;;;;;;13.35;87.43;98176.64;79425;1298;3011638;-69
2023/10/08 05:36:17;;;;;;;7.50;2.60;;;;;;;13.72;86.89;98177.98;78472;1294;3051419;-69
2023/10/08 05:38:51;;;;;;;7.00;3.30;;;;;;;14.06;84.15;98183.90;78640;1294;3056090;-70
2023/10/08 05:41:27;;;;;;;;;;;;;;;13.75;85.21;98179.04;79698;1297;3011540;-69
2023/10/08 05:44:13;;;;;;;11.20;3.50;;;;;;;13.52;86.33;98174.69;78414;1298;3052993;-66
2023/10/08 05:57:14;;;;;;;7.10;3.10;;;;;;;13.76;85.51;98150.35;78388;1298;3057108;-69
2023/10/08 06:05:23;;;;;;;4.80;1.90;;;;;;;13.35;87.42;98158.88;78362;1295;3049667;-68
2023/10/08 06:18:26;;;;;;;6.40;3.20;;;;;;;13.37;85.87;98144.26;79585;1294;3013174;-71
2023/10/08 06:21:08;;;;;;;6.60;2.80;;;;;;;13.30;86.21;98151.59;78329;1295;3049239;-70
2023/10/08 06:23:37;;;;;;;8.30;3.00;;;;;;;14.09;83.92;98149.30;78507;1295;3054937;-70
2023/10/08 06:28:38;;;;;;;3.30;1.80;;;;;;;13.79;83.32;98158.98;78364;1298;3052361;-70
2023/10/08 06:31:11;;;;;;;5.10;1.70;;;;;;;13.51;83.79;98163.57;79751;1297;3012787;-70
2023/10/08 06:33:40;;;;;;;4.50;2.20;;;;;;;13.52;83.67;98166.31;78429;1297;3051660;-70
2023/10/08 06:36:13;;;;;;;5.10;2.40;;;;;;;13.20;85.61;98167.32;79764;1297;3012922;-67
2023/10/08 06:38:51;;;;;;;6.00;1.40;;;;;;;13.10;85.72;98170.61;78626;1297;3052975;-68
2023/10/08 06:41:18;;;;;;;3.60;1.40;;;;;;;13.72;83.91;98169.67;78518;1297;3050545;-65
2023/10/08 06:43:49;;;;;;;2.20;1.30;;;;;;;13.64;82.22;98173.40;77446;1294;3173499;-71
2023/10/08 06:46:18;;;;;;;2.00;1.10;;;;;;;13.60;82.44;98178.92;79779;1293;3011914;-69
2023/10/08 06:48:49;;;;;;;5.50;1.60;;;;;;;13.53;82.27;98171.65;78669;1293;3052178;-65
2023/10/08 06:51:17;;;;;;;2.80;1.70;;;;;;;13.14;84.32;98177.79;79855;1292;3011711;-67
2023/10/08 06:53:47;;;;;;;6.10;1.40;;;;;;;12.79;87.07;98177.10;78316;1292;3025826;-63
2023/10/08 06:56:15;;;;;;;4.60;1.80;;;;;;;13.48;85.15;98184.41;79585;1296;3011898;-68
2023/10/08 06:58:52;;;;;;;3.40;2.00;;;;;;;13.92;82.36;98176.05;79492;1295;3013088;-71
2023/10/08 07:01:24;;;;;;;6.50;3.20;;;;;;;13.73;82.34;98181.90;78509;1292;3054818;-74
2023/10/08 07:03:51;;;;;;;6.10;3.00;;;;;;;13.39;83.18;98183.33;79830;1294;3011609;-68
2023/10/08 07:06:25;;;;;;;5.50;3.50;;;;;;;13.10;84.85;98192.77;78414;1298;3028296;-72
2023/10/08 07:08:55;;;;;;;4.50;2.40;;;;;;;12.88;86.19;98186.89;79912;1298;3011416;-72
2023/10/08 07:11:23;;;;;;;4.60;2.50;;;;;;;13.28;85.39;98187.27;78575;1298;3057252;-69
2023/10/08 07:13:50;;;;;;;5.20;2.40;;;;;;;13.48;84.42;98190.36;79839;1297;3012871;-69
2023/10/08 07:16:31;;;;;;;6.50;2.70;;;;;;;13.40;84.61;98194.48;79990;1293;3011449;-72
2023/10/08 07:19:05;;;;;;;4.20;2.40;;;;;;;13.06;85.97;98201.01;78433;1301;3052769;-68
2023/10/08 07:21:47;;;;;;;7.70;3.00;;;;;;;12.84;87.54;98196.16;79684;1296;3013445;-67
2023/10/08 07:24:17;;;;;;;3.00;1.80;;;;;;;12.35;88.44;98220.75;78392;1297;3069869;-64
2023/10/08 07:26:47;;;;;;;7.60;3.30;;;;;;;12.42;84.92;98225.92;79770;1292;3013573;-70
2023/10/08 07:29:19;;;;;;;9.40;4.40;;;;;;;12.44;83.29;98226.25;78571;1292;3056104;-70
2023/10/08 07:31:48;;;;;;;8.10;4.00;;;;;;;12.08;83.26;98226.73;79782;1296;3012939;-67
2023/10/08 07:34:25;;;;;;;5.80;3.20;;;;;;;11.77;83.19;98240.20;78425;1292;3053509;-65
2023/10/08 07:36:54;;;;;;;5.00;2.10;;;;;;;11.22;84.67;98234.27;78431;1296;3050034;-68
2023/10/08 07:41:56;;;;;;;6.00;1.80;;;;;;;10.82;86.50;98246.16;78662;1292;3067394;-71
2023/10/08 07:44:23;;;;;;;4.70;1.40;;;;;;;11.14;86.33;98249.48;79841;1294;3013094;-67
2023/10/08 07:46:51;;;;;;;6.90;1.10;;;;;;;11.27;84.91;98242.77;78748;1292;3025867;-68
2023/10/08 07:49:18;;;;;;;3.00;1.00;;;;;;;11.03;84.44;98248.93;80126;1292;3013405;-74
2023/10/08 07:51:50;;;;;;;3.60;0.80;;;;;;;10.63;85.27;98266.55;80060;1293;3013499;-70
2023/10/08 07:54:23;;;;;;;3.60;1.70;;;;;;;10.48;85.69;98241.09;78694;1297;3051641;-70
2023/10/08 07:56:51;;;;;;;1.90;1.00;;;;;;;10.07;87.18;98246.77;79654;1292;3013049;-72
2023/10/08 07:59:22;;;;;;;3.70;1.60;;;;;;;10.39;87.36;98246.54;78654;1297;3068831;-69
2023/10/08 08:01:48;;;;;;;6.50;2.60;;;;;;;10.63;85.13;98249.23;79974;1295;3013849;-67
2023/10/08 08:04:22;;;;;;;4.40;1.90;;;;;;;10.62;84.22;98249.66;80020;1292;3011648;-71
2023/10/08 08:07:16;;;;;;;6.80;1.90;;;;;;;10.41;82.83;98257.78;80065;1306;3013753;-70
2023/10/08 08:09:50;;;;;;;5.80;1.80;;;;;;;10.26;82.93;98259.50;79069;1302;3015263;-71
2023/10/08 08:12:19;;;;;;;8.70;2.00;;;;;;;10.23;83.26;98265.33;77958;1315;3053093;-67
2023/10/08 08:14:46;;;;;;;4.00;1.10;;;;;;;10.20;83.61;98268.20;79301;1308;3013549;-70
2023/10/08 08:17:15;;;;;;;3.20;1.30;;;;;;;10.82;82.19;98272.19;79256;1306;3011589;-64
2023/10/08 08:19:52;;;;;;;3.30;1.40;;;;;;;11.10;79.28;98273.30;75291;1299;6145534;-69
2023/10/08 08:22:21;;;;;;;3.50;1.30;;;;;;;10.89;78.98;98276.25;78291;1308;3052679;-71
2023/10/08 08:24:52;;;;;;;3.80;1.20;;;;;;;10.49;79.39;98287.77;79304;1304;3013286;-73
2023/10/08 08:27:31;;;;;;;4.90;1.50;;;;;;;10.37;79.63;98281.77;78179;1298;3051710;-68
2023/10/08 08:30:15;;;;;;;3.30;1.40;;;;;;;10.16;80.49;98289.83;78289;1299;3068088;-66
2023/10/08 08:32:44;;;;;;;5.40;1.50;;;;;;;10.05;80.70;98296.40;78207;1304;3052551;-71
2023/10/08 08:35:12;;;;;;;4.40;1.30;;;;;;;9.91;81.58;98297.98;79563;1298;3014276;-71
2023/10/08 08:37:39;;;;;;;5.40;1.40;;;;;;;10.32;81.39;98299.94;79513;1305;3011651;-69
2023/10/08 08:40:17;;;;;;;3.40;1.40;;;;;;;10.62;79.69;98302.54;78345;1311;3049460;-69
2023/10/08 08:42:50;;;;;;;3.00;1.20;;;;;;;10.48;78.73;98299.79;78324;1302;3053453;-70
2023/10/08 08:45:20;;;;;;;3.50;1.20;;;;;;;10.28;78.98;98302.54;79446;1304;3011758;-69
2023/10/08 08:47:48;;;;;;;3.40;1.30;;;;;;;10.19;79.14;98301.59;78139;1304;3068758;-68
2023/10/08 08:50:14;;;;;;;3.20;1.50;;;;;;;10.07;79.49;98298.23;79725;1298;3013537;-72
2023/10/08 08:52:41;;;;;;;3.80;1.50;;;;;;;10.15;78.89;98304.92;79391;1298;3012227;-68
2023/10/08 08:55:14;;;;;;;4.90;1.00;;;;;;;10.11;79.00;98310.83;78362;1302;3026566;-69
2023/10/08 08:57:42;;;;;;;2.40;1.30;;;;;;;10.38;77.81;98321.20;79805;1298;3011744;-69
2023/10/08 09:00:14;;;;;;;6.20;1.60;;;;;;;10.59;76.72;98321.14;78278;1301;3051170;-72
2023/10/08 09:02:41;;;;;;;6.70;1.60;;;;;;;10.57;76.76;98329.16;79659;1300;3011850;-69
2023/10/08 09:05:34;;;;;;;5.20;1.30;;;;;;;10.36;77.41;98333.65;78324;1298;3027642;-68
2023/10/08 09:08:04;;;;;;;4.50;1.60;;;;;;;10.24;78.12;98333.29;78317;1301;3051467;-68
2023/10/08 09:10:36;;;;;;;3.90;1.40;;;;;;;10.06;78.78;98336.59;79554;1298;3012801;-74
2023/10/08 09:13:07;;;;;;;3.90;1.90;;;;;;;10.04;79.42;98334.30;78277;1299;3049647;-69
2023/10/08 09:15:34;;;;;;;3.30;1.20;;;;;;;9.96;79.96;98338.77;79582;1302;3012847;-73
2023/10/08 09:18:04;;;;;;;3.10;1.50;;;;;;;10.57;78.40;98336.03;78996;1301;3011910;-71
2023/10/08 09:20:34;;;;;;;8.00;1.60;;;;;;;10.95;76.81;98342.49;79511;1302;3012925;-72
2023/10/08 09:23:12;;;;;;;3.60;1.10;;;;;;;11.08;76.49;98330.27;78372;1304;3068225;-69
2023/10/08 09:25:44;;;;;;;4.90;1.50;;;;;;;10.73;76.65;98328.27;78224;1301;3051072;-70
2023/10/08 09:28:14;;;;;;;10.70;1.90;;;;;;;10.39;77.94;98326.56;79663;1299;3011665;-71
2023/10/08 09:30:44;;;;;;;5.60;2.40;;;;;;;10.34;78.82;98328.67;78627;1298;3049374;-72
2023/10/08 09:33:17;;;;;;;6.60;1.80;;;;;;;10.34;79.01;98336.42;79848;1298;3011811;-68
2023/10/08 09:35:46;;;;;;;;;;;;;;;10.21;79.66;98342.84;78161;1299;3050107;-68
2023/10/08 09:38:12;;;;;;;4.80;1.60;;;;;;;10.54;79.22;98341.20;79608;1301;3011616;-70
2023/10/08 09:40:44;;;;;;;3.30;1.40;;;;;;;10.77;76.58;98351.83;79407;1299;3011926;-67
2023/10/08 09:43:11;;;;;;;6.80;2.00;;;;;;;10.45;75.77;98337.61;78400;1299;3050036;-71
2023/10/08 09:45:38;;;;;;;5.90;2.20;;;;;;;10.53;76.81;98334.42;79586;1299;3013537;-69
2023/10/08 09:48:07;;;;;;;5.90;2.20;;;;;;;10.52;76.27;98334.52;79863;1301;3011938;-68
2023/10/08 09:50:37;;;;;;;4.50;1.90;;;;;;;10.38;75.67;98339.41;78270;1299;3049932;-74
2023/10/08 09:53:16;;;;;;;4.10;1.60;;;;;;;10.11;75.64;98341.45;79583;1304;3013139;-74
2023/10/08 09:55:48;;;;;;;3.20;1.40;;;;;;;10.10;73.79;98335.61;78751;1303;3053595;-73
2023/10/08 09:58:16;;;;;;;4.40;1.50;;;;;;;10.01;73.47;98338.59;79394;1304;3011785;-71
2023/10/08 10:00:44;;;;;;;2.60;1.40;;;;;;;10.01;72.26;98338.76;78163;1309;3051047;-65
2023/10/08 10:03:12;;;;;;;3.60;1.30;;;;;;;9.99;71.18;98356.16;79568;1299;3013387;-70
2023/10/08 10:05:40;;;;;;;3.50;1.60;;;;;;;9.97;71.93;98358.81;79415;1303;3011604;-68
2023/10/08 10:08:09;;;;;;;4.60;1.90;;;;;;;9.94;73.17;98361.34;78255;1301;3050110;-73
2023/10/08 10:10:43;;;;;;;2.90;1.50;;;;;;;9.88;74.23;98376.58;79622;1301;3012883;-73
2023/10/08 10:13:11;;;;;;;2.90;1.70;;;;;;;9.82;75.89;98377.40;78281;1297;3053333;-72
2023/10/08 10:15:38;;;;;;;3.00;1.40;;;;;;;10.56;74.43;98380.52;79700;1298;3020737;-67
2023/10/08 10:18:10;;;;;;;4.30;1.30;;;;;;;11.01;71.45;98388.08;79440;1298;3011780;-69
2023/10/08 10:20:45;;;;;;;3.80;1.80;;;;;;;10.94;71.76;98377.77;78416;1304;3049577;-69
2023/10/08 10:23:39;;;;;;;6.40;1.80;;;;;;;10.83;72.20;98380.27;78350;1303;3052442;-71
2023/10/08 10:26:25;;;;;;;5.20;1.80;;;;;;;10.71;73.28;98377.10;78196;1302;3049833;-72
2023/10/08 10:29:14;;;;;;;5.00;1.60;;;;;;;10.37;74.16;98391.10;78311;1303;3053335;-70
2023/10/08 10:31:44;;;;;;;6.40;1.90;;;;;;;10.25;74.74;98392.25;78186;1301;3054112;-68
2023/10/08 10:34:12;;;;;;;7.80;1.50;;;;;;;10.17;74.94;98393.02;79588;1299;3013107;-70
2023/10/08 10:36:43;;;;;;;3.50;1.60;;;;;;;9.97;73.07;98410.21;78407;1297;3025897;-68
2023/10/08 10:39:32;;;;;;;5.10;1.10;;;;;;;9.83;68.87;98414.03;79566;1298;3011927;-70
2023/10/08 10:42:01;;;;;;;3.60;1.10;;;;;;;9.56;64.81;98428.80;78332;1299;3049297;-70
2023/10/08 10:44:29;;;;;;;3.30;1.20;;;;;;;9.57;63.53;98414.21;79521;1301;3011557;-67
2023/10/08 10:49:53;;;;;;;4.50;1.20;;;;;;;9.22;58.57;98424.96;78496;1298;3053997;-71
2023/10/08 10:57:55;;;;;;;2.50;1.10;;;;;;;9.31;61.81;98414.48;78549;1298;3050664;-70
2023/10/08 11:03:09;;;;;;;3.90;1.40;;;;;;;9.32;61.52;98431.20;78429;1298;3051647;-69
2023/10/08 11:05:37;;;;;;;2.60;1.10;;;;;;;9.25;62.21;98421.58;78567;1295;3053678;-67
2023/10/08 11:08:06;;;;;;;2.80;1.10;;;;;;;9.16;60.98;98436.00;79711;1298;3012875;-68
2023/10/08 11:10:38;;;;;;;2.20;0.80;;;;;;;9.05;60.16;98419.52;79571;1298;3011677;-73
2023/10/08 11:13:14;;;;;;;1.90;0.80;;;;;;;9.02;60.77;98430.58;78436;1295;3068702;-74
2023/10/08 11:15:42;;;;;;;3.10;1.10;;;;;;;8.95;60.90;98426.99;78339;1296;3050072;-71
2023/10/08 11:18:12;;;;;;;6.20;1.30;;;;;;;8.94;62.62;98437.55;79785;1295;3013820;-69
2023/10/08 11:20:44;;;;;;;5.50;1.10;;;;;;;8.91;63.80;98433.78;79449;1295;3013083;-71
2023/10/08 11:23:29;;;;;;;7.20;0.70;;;;;;;8.83;61.20;98434.67;79859;1298;3011846;-71
2023/10/08 11:26:02;;;;;;;4.30;1.30;;;;;;;8.82;61.51;98429.15;78418;1298;3049250;-70
2023/10/08 11:28:34;;;;;;;5.70;1.00;;;;;;;8.89;62.46;98429.21;79686;1298;3011645;-69
2023/10/08 11:31:10;;;;;;;4.50;1.00;;;;;;;8.87;61.09;98437.17;78495;1298;3051639;-72
2023/10/08 11:33:39;;;;;;;3.20;1.00;;;;;;;8.87;61.50;98426.90;78488;1296;3068552;-73
2023/10/08 11:36:18;;;;;;;4.00;1.30;;;;;;;8.98;60.59;98410.05;79842;1295;3011591;-69
2023/10/08 11:38:50;;;;;;;3.20;1.00;;;;;;;9.08;59.64;98396.08;78419;1298;3057253;-72
2023/10/08 11:41:27;;;;;;;2.30;0.70;;;;;;;9.09;58.18;98399.13;79608;1295;3012882;-69
2023/10/08 11:44:03;;;;;;;1.60;0.60;;;;;;;9.09;57.61;98387.79;78463;1295;3053956;-73
2023/10/08 11:46:38;;;;;;;3.10;1.10;;;;;;;9.18;58.02;98390.79;78423;1295;3050478;-72
2023/10/08 11:49:11;;;;;;;3.00;1.00;;;;;;;9.16;57.96;98396.40;79163;1298;3011808;-69
2023/10/08 11:51:40;;;;;;;;;;;;;;;9.23;58.74;98387.98;79776;1302;3012852;-70
2023/10/08 11:54:11;;;;;;;3.10;1.30;;;;;;;9.20;58.67;98386.48;78745;1298;3053465;-71
2023/10/08 11:56:38;;;;;;;2.40;1.10;;;;;;;9.19;59.30;98376.08;79838;1296;3013238;-73
2023/10/08 11:59:08;;;;;;;4.30;1.30;;;;;;;9.20;59.20;98374.27;78476;1298;3026637;-69
2023/10/08 12:01:42;;;;;;;2.60;1.40;;;;;;;9.20;60.07;98374.95;79633;1295;3013598;-69
2023/10/08 12:04:15;;;;;;;3.60;1.30;;;;;;;9.16;60.36;98378.89;78522;1295;3049133;-68
2023/10/08 12:06:47;;;;;;;6.00;1.10;;;;;;;9.10;61.36;98377.38;79684;1295;3013445;-70
2023/10/08 12:09:14;;;;;;;5.10;1.70;;;;;;;9.21;61.39;98370.15;78557;1298;3050409;-68
2023/10/08 12:11:41;;;;;;;3.80;1.60;;;;;;;9.15;61.48;98374.24;79679;1294;3013036;-70
2023/10/08 12:14:07;;;;;;;5.20;1.50;;;;;;;9.15;61.33;98373.55;79684;1296;3011913;-68
2023/10/08 12:16:36;;;;;;;3.80;1.60;;;;;;;9.20;61.20;98366.25;78465;1295;3026133;-71
2023/10/08 12:19:15;;;;;;;3.00;1.80;;;;;;;9.21;61.44;98364.73;79727;1294;3013022;-67
2023/10/08 12:21:46;;;;;;;6.30;1.70;;;;;;;9.18;61.53;98371.81;78688;1296;3054151;-70
2023/10/08 12:24:12;;;;;;;4.40;1.70;;;;;;;9.14;61.73;98381.45;79841;1295;3011333;-69
2023/10/08 12:26:45;;;;;;;3.80;1.80;;;;;;;9.12;61.59;98380.39;79345;1298;3011687;-69
2023/10/08 12:29:14;;;;;;;4.50;1.70;;;;;;;9.16;61.85;98376.08;79673;1298;3013483;-70
2023/10/08 12:31:42;;;;;;;6.10;2.20;;;;;;;9.20;61.86;98374.27;78732;1296;3069021;-71
2023/10/08 12:34:11;;;;;;;5.50;2.00;;;;;;;9.20;61.82;98369.36;80081;1295;3011803;-68
2023/10/08 12:36:42;;;;;;;6.60;2.50;;;;;;;9.21;61.74;98370.16;79289;1294;3013042;-71
2023/10/08 12:39:14;;;;;;;5.60;2.60;;;;;;;9.25;61.81;98370.22;79519;1296;3013214;-68
2023/10/08 12:41:43;;;;;;;8.40;3.00;;;;;;;9.28;61.97;98361.08;78563;1295;3050076;-72
2023/10/08 12:44:10;;;;;;;6.20;2.50;;;;;;;9.37;61.68;98351.72;79710;1298;3013224;-72